createdAt,value
2023-06-07T00:00:01.542Z,3.65
2023-06-07T00:00:13.217Z,3.10
2023-06-07T00:00:24.545Z,3.22
2023-06-07T00:00:35.909Z,3.00
2023-06-07T00:00:47.224Z,3.50
2023-06-07T00:00:58.570Z,3.20
2023-06-07T00:01:09.995Z,3.55
2023-06-07T00:01:21.426Z,3.50
2023-06-07T00:01:32.814Z,3.38
2023-06-07T00:01:44.224Z,3.60
2023-06-07T00:01:55.926Z,4.68
2023-06-07T00:02:07.329Z,5.68
2023-06-07T00:02:29.538Z,6.50
2023-06-07T00:02:48.667Z,4.40
2023-06-07T00:03:00.328Z,4.15
2023-06-07T00:03:11.897Z,4.28
2023-06-07T00:03:23.612Z,3.25
2023-06-07T00:03:35.815Z,3.78
2023-06-07T00:03:47.381Z,4.13
2023-06-07T00:03:58.971Z,3.97
2023-06-07T00:04:11.264Z,3.63
2023-06-07T00:04:22.945Z,3.63
2023-06-07T00:04:34.519Z,3.92
2023-06-07T00:04:45.986Z,3.83
2023-06-07T00:04:57.389Z,4.18
2023-06-07T00:05:10.095Z,3.70
2023-06-07T00:05:21.478Z,4.03
2023-06-07T00:05:32.861Z,4.85
2023-06-07T00:05:44.241Z,5.20
2023-06-07T00:05:55.628Z,3.95
2023-06-07T00:06:06.966Z,4.13
2023-06-07T00:06:18.362Z,5.35
2023-06-07T00:06:29.673Z,5.50
2023-06-07T00:06:41.056Z,5.80
2023-06-07T00:06:52.376Z,3.40
2023-06-07T00:07:03.799Z,3.60
2023-06-07T00:07:15.251Z,3.85
2023-06-07T00:07:26.627Z,4.45
2023-06-07T00:07:37.944Z,5.57
2023-06-07T00:07:49.269Z,5.18
2023-06-07T00:08:00.615Z,4.78
2023-06-07T00:08:12.000Z,4.75
2023-06-07T00:08:23.353Z,6.13
2023-06-07T00:08:34.740Z,5.43
2023-06-07T00:08:46.058Z,5.35
2023-06-07T00:08:57.342Z,6.05
2023-06-07T00:09:09.144Z,6.50
2023-06-07T00:09:20.500Z,4.50
2023-06-07T00:09:32.085Z,4.13
2023-06-07T00:09:43.469Z,5.00
2023-06-07T00:09:54.806Z,4.82
2023-06-07T00:10:07.100Z,3.15
2023-06-07T00:10:18.517Z,2.85
2023-06-07T00:10:29.808Z,3.97
2023-06-07T00:10:41.159Z,4.80
2023-06-07T00:10:52.516Z,4.65
2023-06-07T00:11:03.806Z,4.18
2023-06-07T00:11:15.151Z,3.97
2023-06-07T00:11:26.500Z,4.53
2023-06-07T00:11:37.815Z,4.35
2023-06-07T00:11:49.208Z,5.15
2023-06-07T00:12:00.526Z,5.05
2023-06-07T00:12:11.880Z,6.00
2023-06-07T00:12:23.295Z,5.30
2023-06-07T00:12:34.624Z,4.93
2023-06-07T00:12:45.923Z,2.72
2023-06-07T00:12:57.289Z,2.90
2023-06-07T00:13:08.677Z,3.17
2023-06-07T00:13:20.473Z,3.13
2023-06-07T00:13:31.851Z,3.42
2023-06-07T00:13:43.263Z,3.58
2023-06-07T00:13:54.607Z,5.50
2023-06-07T00:14:06.068Z,4.93
2023-06-07T00:14:17.335Z,5.10
2023-06-07T00:14:28.695Z,3.97
2023-06-07T00:14:39.988Z,4.53
2023-06-07T00:14:51.359Z,3.70
2023-06-07T00:15:02.775Z,4.57
2023-06-07T00:15:14.106Z,4.40
2023-06-07T00:15:25.479Z,4.78
2023-06-07T00:15:36.749Z,3.88
2023-06-07T00:15:48.231Z,4.07
2023-06-07T00:15:59.641Z,4.35
2023-06-07T00:16:10.970Z,4.55
2023-06-07T00:16:22.266Z,4.85
2023-06-07T00:16:33.565Z,4.32
2023-06-07T00:16:44.849Z,3.80
2023-06-07T00:16:56.676Z,4.25
2023-06-07T00:17:08.003Z,3.92
2023-06-07T00:17:19.478Z,3.38
2023-06-07T00:17:30.857Z,3.05
2023-06-07T00:17:44.763Z,3.78
2023-06-07T00:17:56.898Z,4.32
2023-06-07T00:18:08.576Z,5.75
2023-06-07T00:18:20.279Z,6.00
2023-06-07T00:18:31.655Z,3.88
2023-06-07T00:18:43.086Z,3.55
2023-06-07T00:18:54.465Z,4.22
2023-06-07T00:19:05.781Z,4.25
2023-06-07T00:19:20.335Z,3.83
2023-06-07T00:19:31.654Z,3.60
2023-06-07T00:19:43.024Z,3.63
2023-06-07T00:19:54.880Z,3.47
2023-06-07T00:20:06.812Z,3.75
2023-06-07T00:20:19.413Z,4.45
2023-06-07T00:20:30.736Z,4.35
2023-06-07T00:20:42.508Z,4.28
2023-06-07T00:20:53.781Z,3.60
2023-06-07T00:21:08.162Z,3.60
2023-06-07T00:21:19.537Z,3.22
2023-06-07T00:21:30.885Z,3.30
2023-06-07T00:21:42.147Z,3.85
2023-06-07T00:21:53.536Z,3.42
2023-06-07T00:22:04.961Z,3.13
2023-06-07T00:22:16.211Z,3.17
2023-06-07T00:22:27.564Z,5.03
2023-06-07T00:22:38.900Z,5.88
2023-06-07T00:22:50.253Z,5.93
2023-06-07T00:23:01.523Z,4.13
2023-06-07T00:23:18.927Z,3.40
2023-06-07T00:23:30.369Z,3.50
2023-06-07T00:23:41.730Z,3.22
2023-06-07T00:23:53.165Z,3.05
2023-06-07T00:24:04.822Z,3.70
2023-06-07T00:24:19.450Z,4.72
2023-06-07T00:24:30.819Z,5.00
2023-06-07T00:24:42.461Z,4.60
2023-06-07T00:24:53.889Z,5.80
2023-06-07T00:25:06.258Z,5.80
2023-06-07T00:25:17.581Z,3.78
2023-06-07T00:25:28.900Z,4.57
2023-06-07T00:25:40.540Z,5.10
2023-06-07T00:25:51.928Z,6.07
2023-06-07T00:26:03.287Z,5.18
2023-06-07T00:26:14.732Z,4.70
2023-06-07T00:26:26.096Z,3.58
2023-06-07T00:26:37.482Z,3.55
2023-06-07T00:26:48.914Z,3.53
2023-06-07T00:27:00.369Z,3.65
2023-06-07T00:27:11.716Z,4.07
2023-06-07T00:27:23.205Z,5.93
2023-06-07T00:27:34.533Z,7.93
2023-06-07T00:27:45.908Z,7.25
2023-06-07T00:27:57.305Z,4.63
2023-06-07T00:28:08.729Z,5.88
2023-06-07T00:28:20.059Z,5.97
2023-06-07T00:28:31.441Z,5.03
2023-06-07T00:28:42.745Z,2.95
2023-06-07T00:28:54.084Z,3.03
2023-06-07T00:29:05.421Z,3.15
2023-06-07T00:29:16.748Z,3.90
2023-06-07T00:29:28.100Z,3.72
2023-06-07T00:29:39.503Z,4.78
2023-06-07T00:29:50.887Z,4.20
2023-06-07T00:30:02.501Z,4.00
2023-06-07T00:30:14.379Z,3.83
2023-06-07T00:30:25.798Z,5.63
2023-06-07T00:30:37.073Z,7.45
2023-06-07T00:30:48.421Z,8.30
2023-06-07T00:30:59.798Z,5.55
2023-06-07T00:31:12.785Z,4.68
2023-06-07T00:31:24.292Z,4.78
2023-06-07T00:31:35.745Z,5.55
2023-06-07T00:31:47.097Z,5.68
2023-06-07T00:31:58.367Z,4.95
2023-06-07T00:32:09.724Z,4.68
2023-06-07T00:32:21.064Z,5.43
2023-06-07T00:32:32.512Z,5.65
2023-06-07T00:32:44.565Z,6.72
2023-06-07T00:32:56.064Z,5.07
2023-06-07T00:33:07.547Z,7.32
2023-06-07T00:33:20.821Z,6.18
2023-06-07T00:33:32.162Z,7.35
2023-06-07T00:33:43.448Z,4.80
2023-06-07T00:33:54.838Z,3.60
2023-06-07T00:34:06.145Z,3.17
2023-06-07T00:34:17.589Z,3.60
2023-06-07T00:34:28.999Z,7.38
2023-06-07T00:34:40.334Z,7.18
2023-06-07T00:34:51.679Z,6.03
2023-06-07T00:35:03.058Z,4.43
2023-06-07T00:35:14.798Z,3.28
2023-06-07T00:35:26.135Z,3.40
2023-06-07T00:35:37.514Z,3.22
2023-06-07T00:35:49.088Z,3.00
2023-06-07T00:36:00.425Z,3.95
2023-06-07T00:36:11.845Z,3.95
2023-06-07T00:36:23.205Z,3.65
2023-06-07T00:36:34.996Z,3.72
2023-06-07T00:36:46.362Z,4.63
2023-06-07T00:36:57.685Z,4.35
2023-06-07T00:37:09.022Z,4.20
2023-06-07T00:37:20.453Z,3.88
2023-06-07T00:37:31.780Z,3.92
2023-06-07T00:37:45.144Z,3.70
2023-06-07T00:37:56.452Z,3.22
2023-06-07T00:38:07.739Z,2.80
2023-06-07T00:38:19.100Z,2.92
2023-06-07T00:38:30.384Z,4.15
2023-06-07T00:38:41.694Z,3.95
2023-06-07T00:38:53.117Z,4.35
2023-06-07T00:39:04.492Z,4.60
2023-06-07T00:39:15.840Z,4.85
2023-06-07T00:39:27.163Z,4.65
2023-06-07T00:39:38.491Z,3.42
2023-06-07T00:39:50.258Z,4.30
2023-06-07T00:40:01.754Z,4.28
2023-06-07T00:40:13.477Z,5.53
2023-06-07T00:40:24.840Z,4.88
2023-06-07T00:40:36.204Z,4.38
2023-06-07T00:40:47.470Z,3.70
2023-06-07T00:40:58.820Z,2.83
2023-06-07T00:41:10.357Z,2.92
2023-06-07T00:41:22.143Z,3.00
2023-06-07T00:41:33.621Z,5.93
2023-06-07T00:41:44.972Z,6.28
2023-06-07T00:41:56.815Z,6.85
2023-06-07T00:42:08.250Z,5.53
2023-06-07T00:42:19.638Z,5.07
2023-06-07T00:42:30.970Z,4.75
2023-06-07T00:42:42.284Z,5.45
2023-06-07T00:42:54.070Z,5.95
2023-06-07T00:43:05.372Z,5.82
2023-06-07T00:43:16.759Z,3.40
2023-06-07T00:43:28.070Z,3.58
2023-06-07T00:43:39.416Z,3.85
2023-06-07T00:43:50.782Z,4.93
2023-06-07T00:44:02.147Z,4.97
2023-06-07T00:44:13.426Z,3.35
2023-06-07T00:44:24.789Z,3.25
2023-06-07T00:44:36.084Z,3.28
2023-06-07T00:44:47.421Z,3.70
2023-06-07T00:44:58.739Z,3.85
2023-06-07T00:45:10.367Z,3.55
2023-06-07T00:45:21.816Z,3.97
2023-06-07T00:45:33.192Z,4.05
2023-06-07T00:45:44.637Z,3.78
2023-06-07T00:45:56.349Z,3.33
2023-06-07T00:46:07.772Z,3.78
2023-06-07T00:46:20.367Z,7.03
2023-06-07T00:46:35.399Z,7.40
2023-06-07T00:46:46.777Z,4.70
2023-06-07T00:46:58.264Z,4.07
2023-06-07T00:47:09.727Z,2.92
2023-06-07T00:47:21.126Z,3.78
2023-06-07T00:47:32.806Z,3.80
2023-06-07T00:47:44.564Z,3.50
2023-06-07T00:47:57.653Z,3.50
2023-06-07T00:48:09.258Z,3.30
2023-06-07T00:48:20.755Z,3.47
2023-06-07T00:48:32.392Z,3.63
2023-06-07T00:48:44.391Z,3.63
2023-06-07T00:48:56.687Z,3.08
2023-06-07T00:49:08.233Z,3.25
2023-06-07T00:49:19.553Z,3.47
2023-06-07T00:49:31.249Z,5.07
2023-06-07T00:49:43.474Z,4.68
2023-06-07T00:49:54.884Z,5.10
2023-06-07T00:50:07.177Z,4.28
2023-06-07T00:50:18.661Z,3.75
2023-06-07T00:50:30.018Z,3.13
2023-06-07T00:50:41.625Z,2.70
2023-06-07T00:50:52.981Z,3.10
2023-06-07T00:51:05.018Z,3.28
2023-06-07T00:51:16.409Z,3.33
2023-06-07T00:51:28.864Z,3.15
2023-06-07T00:51:40.229Z,3.33
2023-06-07T00:51:51.899Z,4.38
2023-06-07T00:52:04.791Z,4.30
2023-06-07T00:52:16.321Z,3.38
2023-06-07T00:52:27.861Z,4.85
2023-06-07T00:52:39.420Z,5.90
2023-06-07T00:52:51.653Z,7.70
2023-06-07T00:53:04.065Z,4.70
2023-06-07T00:53:15.575Z,3.40
2023-06-07T00:53:27.705Z,2.90
2023-06-07T00:53:39.719Z,5.03
2023-06-07T00:53:52.631Z,5.15
2023-06-07T00:54:05.312Z,3.45
2023-06-07T00:54:16.822Z,3.30
2023-06-07T00:54:28.457Z,3.65
2023-06-07T00:54:39.861Z,3.88
2023-06-07T00:54:51.256Z,3.67
2023-06-07T00:55:03.821Z,5.07
2023-06-07T00:55:15.185Z,5.07
2023-06-07T00:55:27.027Z,4.90
2023-06-07T00:55:38.869Z,5.28
2023-06-07T00:55:50.342Z,5.45
2023-06-07T00:56:01.688Z,3.35
2023-06-07T00:56:13.129Z,3.22
2023-06-07T00:56:24.467Z,2.85
2023-06-07T00:56:36.240Z,2.97
2023-06-07T00:56:48.096Z,3.53
2023-06-07T00:56:59.609Z,3.40
2023-06-07T00:57:11.393Z,4.28
2023-06-07T00:57:22.889Z,4.53
2023-06-07T00:57:34.453Z,4.63
2023-06-07T00:57:45.969Z,3.38
2023-06-07T00:57:58.330Z,3.20
2023-06-07T00:58:10.155Z,3.60
2023-06-07T00:58:21.725Z,4.25
2023-06-07T00:58:34.393Z,4.00
2023-06-07T00:58:46.481Z,3.25
2023-06-07T00:58:58.213Z,3.55
2023-06-07T00:59:09.580Z,4.43
2023-06-07T00:59:21.503Z,5.15
2023-06-07T00:59:32.871Z,4.32
2023-06-07T00:59:44.506Z,4.10
2023-06-07T00:59:55.797Z,3.85
2023-06-07T01:00:07.599Z,3.80
2023-06-07T01:00:19.026Z,3.88
2023-06-07T01:00:30.629Z,3.33
2023-06-07T01:00:42.322Z,3.25
2023-06-07T01:00:54.082Z,2.90
2023-06-07T01:01:06.460Z,3.53
2023-06-07T01:01:17.836Z,6.63
2023-06-07T01:01:29.204Z,8.20
2023-06-07T01:01:41.522Z,9.23
2023-06-07T01:01:52.913Z,8.27
2023-06-07T01:02:04.796Z,8.07
2023-06-07T01:02:16.393Z,6.68
2023-06-07T01:02:27.957Z,4.57
2023-06-07T01:02:39.421Z,5.57
2023-06-07T01:02:51.105Z,5.25
2023-06-07T01:03:02.676Z,4.38
2023-06-07T01:03:14.260Z,4.07
2023-06-07T01:03:26.281Z,4.45
2023-06-07T01:03:38.613Z,4.03
2023-06-07T01:03:51.144Z,3.80
2023-06-07T01:04:02.655Z,4.30
2023-06-07T01:04:14.075Z,3.80
2023-06-07T01:04:25.449Z,3.10
2023-06-07T01:04:37.277Z,3.53
2023-06-07T01:04:48.760Z,4.30
2023-06-07T01:05:00.172Z,4.50
2023-06-07T01:05:11.752Z,3.95
2023-06-07T01:05:25.498Z,5.30
2023-06-07T01:05:37.140Z,5.28
2023-06-07T01:05:48.823Z,4.25
2023-06-07T01:06:00.476Z,3.22
2023-06-07T01:06:12.292Z,2.85
2023-06-07T01:06:23.630Z,3.00
2023-06-07T01:06:34.939Z,3.53
2023-06-07T01:06:46.277Z,3.47
2023-06-07T01:06:57.993Z,3.95
2023-06-07T01:07:09.706Z,3.92
2023-06-07T01:07:21.019Z,4.45
2023-06-07T01:07:32.321Z,4.10
2023-06-07T01:07:46.900Z,5.68
2023-06-07T01:07:58.312Z,5.65
2023-06-07T01:08:09.634Z,3.75
2023-06-07T01:08:20.947Z,3.20
2023-06-07T01:08:32.745Z,3.08
2023-06-07T01:08:44.537Z,3.88
2023-06-07T01:08:56.013Z,4.93
2023-06-07T01:09:07.755Z,4.40
2023-06-07T01:09:20.223Z,3.72
2023-06-07T01:09:31.930Z,3.70
2023-06-07T01:09:43.337Z,3.05
2023-06-07T01:09:54.903Z,2.83
2023-06-07T01:10:07.012Z,2.50
2023-06-07T01:10:18.667Z,3.72
2023-06-07T01:10:30.139Z,4.88
2023-06-07T01:10:41.526Z,5.15
2023-06-07T01:10:55.301Z,4.28
2023-06-07T01:11:07.654Z,3.75
2023-06-07T01:11:20.568Z,3.13
2023-06-07T01:11:33.045Z,2.83
2023-06-07T01:11:47.391Z,3.45
2023-06-07T01:11:58.804Z,3.67
2023-06-07T01:12:14.461Z,3.88
2023-06-07T01:12:25.993Z,3.38
2023-06-07T01:12:37.910Z,5.25
2023-06-07T01:12:51.036Z,5.30
2023-06-07T01:13:02.648Z,3.65
2023-06-07T01:13:14.238Z,4.85
2023-06-07T01:13:25.914Z,5.00
2023-06-07T01:13:38.359Z,5.05
2023-06-07T01:13:50.105Z,5.30
2023-06-07T01:14:02.614Z,5.72
2023-06-07T01:14:15.020Z,4.28
2023-06-07T01:14:26.559Z,3.50
2023-06-07T01:14:37.919Z,4.45
2023-06-07T01:14:49.932Z,5.80
2023-06-07T01:15:01.888Z,7.15
2023-06-07T01:15:13.515Z,4.60
2023-06-07T01:15:25.558Z,3.85
2023-06-07T01:15:36.968Z,3.88
2023-06-07T01:15:48.655Z,4.22
2023-06-07T01:16:00.174Z,4.47
2023-06-07T01:16:11.693Z,4.35
2023-06-07T01:16:23.166Z,4.35
2023-06-07T01:16:34.686Z,4.15
2023-06-07T01:16:47.005Z,4.38
2023-06-07T01:16:58.669Z,4.20
2023-06-07T01:17:10.102Z,4.10
2023-06-07T01:17:21.511Z,4.40
2023-06-07T01:17:33.229Z,5.13
2023-06-07T01:17:44.783Z,4.72
2023-06-07T01:17:56.293Z,5.25
2023-06-07T01:18:07.970Z,5.20
2023-06-07T01:18:19.550Z,4.55
2023-06-07T01:18:30.874Z,4.78
2023-06-07T01:18:42.510Z,4.55
2023-06-07T01:18:53.849Z,4.03
2023-06-07T01:19:05.519Z,3.53
2023-06-07T01:19:24.636Z,3.28
2023-06-07T01:19:36.734Z,4.32
2023-06-07T01:19:48.700Z,4.75
2023-06-07T01:20:00.605Z,4.60
2023-06-07T01:20:13.448Z,2.97
2023-06-07T01:20:28.168Z,3.42
2023-06-07T01:20:40.544Z,3.08
2023-06-07T01:20:54.459Z,3.67
2023-06-07T01:21:06.242Z,4.22
2023-06-07T01:21:18.056Z,4.55
2023-06-07T01:21:30.005Z,4.47
2023-06-07T01:21:42.437Z,5.25
2023-06-07T01:22:13.974Z,5.47
2023-06-07T01:22:26.980Z,4.05
2023-06-07T01:22:39.708Z,4.35
2023-06-07T01:22:51.523Z,4.57
2023-06-07T01:23:04.184Z,4.05
2023-06-07T01:23:15.631Z,3.35
2023-06-07T01:23:30.392Z,3.33
2023-06-07T01:23:42.871Z,3.83
2023-06-07T01:23:54.349Z,3.92
2023-06-07T01:24:05.940Z,4.43
2023-06-07T01:24:17.322Z,5.32
2023-06-07T01:24:28.712Z,4.83
2023-06-07T01:24:40.048Z,5.43
2023-06-07T01:24:51.561Z,4.25
2023-06-07T01:25:03.217Z,4.30
2023-06-07T01:25:14.590Z,4.20
2023-06-07T01:25:26.091Z,4.97
2023-06-07T01:25:37.641Z,4.10
2023-06-07T01:25:48.988Z,4.18
2023-06-07T01:26:00.708Z,5.03
2023-06-07T01:26:12.167Z,7.00
2023-06-07T01:26:24.704Z,7.72
2023-06-07T01:26:38.358Z,5.32
2023-06-07T01:26:50.793Z,4.68
2023-06-07T01:27:05.642Z,3.40
2023-06-07T01:27:18.012Z,5.25
2023-06-07T01:27:29.737Z,5.10
2023-06-07T01:27:43.038Z,4.03
2023-06-07T01:27:54.458Z,3.72
2023-06-07T01:28:06.662Z,3.38
2023-06-07T01:28:17.994Z,3.47
2023-06-07T01:28:33.284Z,3.83
2023-06-07T01:28:44.849Z,5.30
2023-06-07T01:28:56.837Z,5.80
2023-06-07T01:29:08.179Z,4.97
2023-06-07T01:29:20.172Z,3.83
2023-06-07T01:29:31.754Z,3.70
2023-06-07T01:29:43.611Z,3.60
2023-06-07T01:29:56.909Z,3.20
2023-06-07T01:30:09.728Z,3.90
2023-06-07T01:30:21.637Z,4.32
2023-06-07T01:30:33.260Z,4.95
2023-06-07T01:30:45.024Z,5.30
2023-06-07T01:30:56.556Z,4.75
2023-06-07T01:31:08.490Z,5.22
2023-06-07T01:31:21.754Z,4.95
2023-06-07T01:31:36.938Z,4.25
2023-06-07T01:31:49.327Z,4.28
2023-06-07T01:32:03.158Z,3.90
2023-06-07T01:32:14.659Z,3.40
2023-06-07T01:32:26.750Z,4.75
2023-06-07T01:32:39.148Z,5.03
2023-06-07T01:32:51.868Z,5.07
2023-06-07T01:33:04.679Z,3.45
2023-06-07T01:33:17.140Z,3.33
2023-06-07T01:33:33.231Z,3.22
2023-06-07T01:33:44.809Z,3.90
2023-06-07T01:33:56.548Z,4.88
2023-06-07T01:34:08.586Z,6.03
2023-06-07T01:34:20.814Z,7.20
2023-06-07T01:34:33.748Z,5.47
2023-06-07T01:34:45.140Z,4.20
2023-06-07T01:34:56.527Z,3.42
2023-06-07T01:35:08.924Z,3.50
2023-06-07T01:35:20.602Z,3.33
2023-06-07T01:35:33.086Z,3.40
2023-06-07T01:35:45.256Z,3.80
2023-06-07T01:35:56.992Z,4.03
2023-06-07T01:36:09.338Z,5.28
2023-06-07T01:36:20.861Z,6.75
2023-06-07T01:36:32.364Z,5.18
2023-06-07T01:36:44.369Z,5.38
2023-06-07T01:36:56.187Z,7.53
2023-06-07T01:37:08.789Z,6.72
2023-06-07T01:37:20.976Z,6.60
2023-06-07T01:37:32.610Z,5.47
2023-06-07T01:37:44.820Z,5.60
2023-06-07T01:37:56.851Z,4.03
2023-06-07T01:38:08.902Z,4.72
2023-06-07T01:38:21.662Z,4.35
2023-06-07T01:38:33.354Z,5.13
2023-06-07T01:38:45.226Z,5.25
2023-06-07T01:38:57.050Z,5.47
2023-06-07T01:39:09.878Z,5.03
2023-06-07T01:39:21.544Z,4.13
2023-06-07T01:39:32.959Z,2.95
2023-06-07T01:39:44.705Z,3.97
2023-06-07T01:39:56.961Z,4.78
2023-06-07T01:40:08.963Z,5.75
2023-06-07T01:40:21.334Z,5.57
2023-06-07T01:40:33.829Z,4.25
2023-06-07T01:40:45.326Z,3.78
2023-06-07T01:40:57.793Z,3.97
2023-06-07T01:41:09.540Z,3.75
2023-06-07T01:41:21.258Z,4.47
2023-06-07T01:41:32.762Z,5.85
2023-06-07T01:41:45.186Z,5.63
2023-06-07T01:41:57.924Z,5.65
2023-06-07T01:42:12.535Z,5.75
2023-06-07T01:42:24.092Z,5.68
2023-06-07T01:42:35.923Z,3.83
2023-06-07T01:42:47.916Z,4.15
2023-06-07T01:42:59.864Z,4.32
2023-06-07T01:43:11.853Z,6.40
2023-06-07T01:43:24.040Z,5.43
2023-06-07T01:43:36.128Z,6.22
2023-06-07T01:43:48.746Z,4.57
2023-06-07T01:44:00.975Z,4.75
2023-06-07T01:44:13.901Z,3.88
2023-06-07T01:44:25.681Z,4.88
2023-06-07T01:44:38.426Z,5.20
2023-06-07T01:44:50.421Z,6.00
2023-06-07T01:45:02.995Z,5.33
2023-06-07T01:45:14.895Z,5.35
2023-06-07T01:45:26.402Z,5.53
2023-06-07T01:45:37.841Z,3.90
2023-06-07T01:45:49.613Z,4.57
2023-06-07T01:46:01.042Z,4.93
2023-06-07T01:46:12.906Z,4.38
2023-06-07T01:46:24.966Z,4.50
2023-06-07T01:46:36.743Z,3.45
2023-06-07T01:46:48.536Z,3.63
2023-06-07T01:46:59.969Z,4.53
2023-06-07T01:47:11.617Z,5.03
2023-06-07T01:47:23.125Z,5.18
2023-06-07T01:47:34.711Z,4.20
2023-06-07T01:47:46.332Z,3.70
2023-06-07T01:47:57.804Z,4.88
2023-06-07T01:48:09.581Z,4.88
2023-06-07T01:48:21.074Z,4.53
2023-06-07T01:48:32.360Z,4.07
2023-06-07T01:48:43.715Z,4.88
2023-06-07T01:48:56.031Z,5.60
2023-06-07T01:49:07.340Z,5.65
2023-06-07T01:49:19.252Z,5.05
2023-06-07T01:49:31.665Z,5.60
2023-06-07T01:49:43.105Z,5.82
2023-06-07T01:49:54.407Z,5.15
2023-06-07T01:50:06.636Z,3.92
2023-06-07T01:50:22.132Z,3.97
2023-06-07T01:50:33.478Z,4.60
2023-06-07T01:50:44.877Z,4.53
2023-06-07T01:50:56.257Z,4.15
2023-06-07T01:51:07.591Z,3.97
2023-06-07T01:51:19.027Z,3.63
2023-06-07T01:51:30.360Z,3.92
2023-06-07T01:51:41.681Z,3.55
2023-06-07T01:51:52.980Z,3.22
2023-06-07T01:52:04.440Z,3.45
2023-06-07T01:52:15.771Z,4.30
2023-06-07T01:52:27.169Z,4.63
2023-06-07T01:52:38.538Z,4.03
2023-06-07T01:52:49.891Z,4.13
2023-06-07T01:53:01.232Z,4.40
2023-06-07T01:53:13.902Z,3.78
2023-06-07T01:53:25.317Z,4.57
2023-06-07T01:53:36.684Z,4.90
2023-06-07T01:53:49.107Z,4.80
2023-06-07T01:54:01.378Z,3.85
2023-06-07T01:54:13.874Z,4.05
2023-06-07T01:54:25.526Z,3.90
2023-06-07T01:54:38.440Z,3.92
2023-06-07T01:54:50.134Z,3.90
2023-06-07T01:55:02.564Z,4.15
2023-06-07T01:55:13.973Z,4.20
2023-06-07T01:55:25.416Z,3.90
2023-06-07T01:55:39.550Z,3.42
2023-06-07T01:55:56.259Z,2.97
2023-06-07T01:56:28.155Z,3.88
2023-06-07T01:56:53.411Z,4.00
2023-06-07T01:57:10.870Z,4.28
2023-06-07T01:57:28.150Z,4.60
2023-06-07T01:58:01.638Z,4.47
2023-06-07T01:58:12.932Z,4.90
2023-06-07T01:58:30.038Z,3.17
2023-06-07T01:58:49.460Z,4.60
2023-06-07T01:59:22.398Z,3.90
2023-06-07T01:59:39.572Z,4.13
2023-06-07T02:00:01.432Z,3.90
2023-06-07T02:00:16.074Z,7.40
2023-06-07T02:00:29.633Z,7.15
2023-06-07T02:00:57.120Z,4.90
2023-06-07T02:01:14.595Z,7.05
2023-06-07T02:01:31.513Z,4.18
2023-06-07T02:01:55.344Z,3.63
2023-06-07T02:02:09.723Z,4.05
2023-06-07T02:02:33.092Z,3.63
2023-06-07T02:02:50.162Z,4.00
2023-06-07T02:03:11.086Z,3.42
2023-06-07T02:03:30.103Z,5.30
2023-06-07T02:03:46.256Z,6.18
2023-06-07T02:04:00.507Z,5.70
2023-06-07T02:04:12.962Z,4.80
2023-06-07T02:04:28.570Z,4.95
2023-06-07T02:04:42.307Z,6.55
2023-06-07T02:04:56.389Z,8.40
2023-06-07T02:05:14.517Z,7.68
2023-06-07T02:05:32.539Z,4.72
2023-06-07T02:05:49.142Z,4.10
2023-06-07T02:06:02.965Z,4.53
2023-06-07T02:06:17.958Z,5.18
2023-06-07T02:06:31.716Z,5.25
2023-06-07T02:06:45.280Z,5.47
2023-06-07T02:07:01.112Z,7.43
2023-06-07T02:07:16.607Z,6.05
2023-06-07T02:07:29.557Z,4.25
2023-06-07T02:07:44.730Z,5.20
2023-06-07T02:07:57.837Z,6.47
2023-06-07T02:08:24.218Z,4.85
2023-06-07T02:08:38.940Z,4.07
2023-06-07T02:08:53.107Z,7.43
2023-06-07T02:09:07.894Z,7.00
2023-06-07T02:09:19.937Z,3.90
2023-06-07T02:09:31.933Z,7.03
2023-06-07T02:09:43.634Z,7.93
2023-06-07T02:09:55.239Z,6.10
2023-06-07T02:10:07.193Z,5.20
2023-06-07T02:10:21.305Z,4.85
2023-06-07T02:10:33.329Z,4.47
2023-06-07T02:10:46.054Z,5.32
2023-06-07T02:10:57.711Z,4.45
2023-06-07T02:11:09.482Z,4.60
2023-06-07T02:11:22.880Z,3.85
2023-06-07T02:11:34.762Z,4.88
2023-06-07T02:11:46.433Z,5.55
2023-06-07T02:11:58.535Z,6.13
2023-06-07T02:12:10.644Z,3.90
2023-06-07T02:12:22.681Z,3.90
2023-06-07T02:12:34.216Z,3.60
2023-06-07T02:12:46.139Z,3.97
2023-06-07T02:12:58.464Z,3.65
2023-06-07T02:13:10.435Z,3.75
2023-06-07T02:13:22.414Z,4.50
2023-06-07T02:13:40.382Z,6.65
2023-06-07T02:13:52.036Z,5.70
2023-06-07T02:14:03.487Z,3.25
2023-06-07T02:14:14.874Z,3.50
2023-06-07T02:14:26.304Z,3.38
2023-06-07T02:14:38.848Z,5.13
2023-06-07T02:14:50.257Z,5.22
2023-06-07T02:15:01.785Z,4.72
2023-06-07T02:15:13.282Z,4.78
2023-06-07T02:15:24.656Z,5.38
2023-06-07T02:15:35.983Z,4.95
2023-06-07T02:15:47.341Z,4.03
2023-06-07T02:15:58.807Z,4.10
2023-06-07T02:16:10.454Z,4.55
2023-06-07T02:16:34.290Z,4.68
2023-06-07T02:16:45.626Z,4.05
2023-06-07T02:16:57.048Z,4.85
2023-06-07T02:17:08.757Z,7.10
2023-06-07T02:17:20.668Z,6.63
2023-06-07T02:17:32.178Z,5.50
2023-06-07T02:17:53.360Z,2.90
2023-06-07T02:18:04.742Z,3.28
2023-06-07T02:18:19.686Z,3.95
2023-06-07T02:18:31.270Z,3.72
2023-06-07T02:18:42.667Z,3.33
2023-06-07T02:18:54.042Z,3.03
2023-06-07T02:19:05.910Z,3.05
2023-06-07T02:19:17.227Z,3.07
2023-06-07T02:19:28.707Z,3.33
2023-06-07T02:19:40.121Z,3.38
2023-06-07T02:19:52.410Z,4.20
2023-06-07T02:20:03.948Z,4.35
2023-06-07T02:20:15.643Z,3.92
2023-06-07T02:20:27.558Z,3.85
2023-06-07T02:20:39.161Z,4.78
2023-06-07T02:20:50.423Z,4.63
2023-06-07T02:21:01.746Z,4.45
2023-06-07T02:21:13.068Z,3.33
2023-06-07T02:21:24.410Z,3.20
2023-06-07T02:21:36.194Z,3.88
2023-06-07T02:21:47.510Z,5.80
2023-06-07T02:21:58.792Z,6.28
2023-06-07T02:22:10.120Z,5.38
2023-06-07T02:22:21.558Z,5.28
2023-06-07T02:22:32.934Z,4.38
2023-06-07T02:22:44.440Z,4.70
2023-06-07T02:22:56.451Z,4.10
2023-06-07T02:23:07.826Z,3.75
2023-06-07T02:23:19.169Z,3.67
2023-06-07T02:23:30.533Z,4.25
2023-06-07T02:23:41.941Z,4.13
2023-06-07T02:23:53.357Z,4.68
2023-06-07T02:24:07.618Z,4.63
2023-06-07T02:24:19.080Z,4.25
2023-06-07T02:24:30.479Z,3.90
2023-06-07T02:24:41.819Z,3.63
2023-06-07T02:24:53.169Z,3.55
2023-06-07T02:25:04.598Z,3.83
2023-06-07T02:25:15.975Z,4.78
2023-06-07T02:25:27.741Z,4.38
2023-06-07T02:25:39.066Z,5.10
2023-06-07T02:25:50.767Z,5.28
2023-06-07T02:26:02.444Z,5.68
2023-06-07T02:26:13.759Z,5.03
2023-06-07T02:26:25.122Z,3.72
2023-06-07T02:26:36.483Z,3.78
2023-06-07T02:26:47.849Z,3.78
2023-06-07T02:26:59.218Z,4.28
2023-06-07T02:27:10.557Z,4.43
2023-06-07T02:27:21.896Z,4.35
2023-06-07T02:27:33.269Z,4.25
2023-06-07T02:27:44.568Z,4.28
2023-06-07T02:27:55.930Z,4.15
2023-06-07T02:28:07.263Z,4.35
2023-06-07T02:28:18.569Z,6.70
2023-06-07T02:28:30.001Z,6.30
2023-06-07T02:28:42.406Z,6.07
2023-06-07T02:28:53.757Z,5.72
2023-06-07T02:29:05.408Z,6.20
2023-06-07T02:29:16.833Z,5.90
2023-06-07T02:29:28.137Z,3.63
2023-06-07T02:29:39.766Z,3.63
2023-06-07T02:29:51.063Z,3.60
2023-06-07T02:30:02.601Z,3.58
2023-06-07T02:30:14.280Z,4.20
2023-06-07T02:30:25.595Z,6.07
2023-06-07T02:30:36.916Z,7.05
2023-06-07T02:30:48.237Z,7.20
2023-06-07T02:30:59.713Z,5.03
2023-06-07T02:31:11.223Z,4.03
2023-06-07T02:31:22.697Z,5.55
2023-06-07T02:31:34.059Z,6.43
2023-06-07T02:31:45.457Z,6.28
2023-06-07T02:31:56.879Z,4.93
2023-06-07T02:32:08.613Z,5.50
2023-06-07T02:32:19.907Z,6.30
2023-06-07T02:32:31.320Z,6.43
2023-06-07T02:32:43.073Z,6.13
2023-06-07T02:32:54.520Z,4.95
2023-06-07T02:33:05.964Z,5.40
2023-06-07T02:33:17.307Z,5.78
2023-06-07T02:33:28.631Z,5.65
2023-06-07T02:33:39.994Z,5.47
2023-06-07T02:33:51.301Z,5.15
2023-06-07T02:34:02.613Z,5.07
2023-06-07T02:34:13.973Z,4.07
2023-06-07T02:34:25.267Z,4.32
2023-06-07T02:34:36.620Z,5.38
2023-06-07T02:34:47.922Z,5.95
2023-06-07T02:34:59.209Z,6.32
2023-06-07T02:35:10.529Z,6.70
2023-06-07T02:35:22.074Z,6.22
2023-06-07T02:35:33.401Z,5.45
2023-06-07T02:35:45.069Z,6.13
2023-06-07T02:35:56.461Z,6.13
2023-06-07T02:36:07.755Z,6.60
2023-06-07T02:36:19.728Z,4.53
2023-06-07T02:36:31.134Z,5.45
2023-06-07T02:36:42.657Z,5.65
2023-06-07T02:36:54.282Z,5.40
2023-06-07T02:37:05.777Z,5.25
2023-06-07T02:37:17.074Z,5.47
2023-06-07T02:37:29.376Z,6.32
2023-06-07T02:37:40.920Z,8.30
2023-06-07T02:37:52.347Z,7.72
2023-06-07T02:38:03.720Z,6.18
2023-06-07T02:38:15.268Z,3.38
2023-06-07T02:38:26.601Z,4.47
2023-06-07T02:38:37.916Z,4.57
2023-06-07T02:38:49.273Z,4.60
2023-06-07T02:39:01.416Z,4.22
2023-06-07T02:39:12.726Z,5.22
2023-06-07T02:39:24.052Z,5.55
2023-06-07T02:39:35.365Z,5.05
2023-06-07T02:39:46.724Z,4.68
2023-06-07T02:39:58.967Z,4.43
2023-06-07T02:40:10.600Z,5.60
2023-06-07T02:40:21.935Z,5.90
2023-06-07T02:40:33.918Z,5.63
2023-06-07T02:40:45.282Z,7.55
2023-06-07T02:40:57.741Z,11.35
2023-06-07T02:41:09.099Z,11.05
2023-06-07T02:41:20.424Z,7.18
2023-06-07T02:41:31.809Z,6.38
2023-06-07T02:41:43.139Z,5.32
2023-06-07T02:41:54.555Z,6.90
2023-06-07T02:42:06.105Z,6.03
2023-06-07T02:42:17.368Z,5.40